Terminal Aerodrome Forecast
Issued by NWS

Home | Current Version | Previous Version | Text Only | Print | Product List | Glossary On
Versions: 1 2 3 4 5 6 7 8 9 10 11 12 13 14 15 16 17 18 19
000
FTUS45 KABQ 212300
TAFTCC
TAF
KTCC 212321Z 2200/2224 08012KT P6SM VCSH BKN050
      TEMPO 2201/2205 4SM TSRA OVC025CB
     FM220700 12008KT P6SM OVC015
     FM221700 17012KT P6SM VCSH BKN030
     FM222100 18014G22KT P6SM VCTS BKN050CB=

USA.gov is the U.S. government's official web portal to all federal, state and local government web resources and services.